createdAt,value
2023-06-07T00:00:28.752Z,17.20
2023-06-07T00:02:58.325Z,17.20
2023-06-07T00:05:25.600Z,17.20
2023-06-07T00:07:52.962Z,17.20
2023-06-07T00:10:20.093Z,17.20
2023-06-07T00:12:47.140Z,17.20
2023-06-07T00:15:14.261Z,17.20
2023-06-07T00:17:44.416Z,17.20
2023-06-07T00:20:12.662Z,17.20
2023-06-07T00:22:39.928Z,17.20
2023-06-07T00:25:09.692Z,17.20
2023-06-07T00:27:37.254Z,17.20
2023-06-07T00:30:05.253Z,17.20
2023-06-07T00:32:33.076Z,17.20
2023-06-07T00:35:00.343Z,17.20
2023-06-07T00:37:27.418Z,17.20
2023-06-07T00:39:54.514Z,17.20
2023-06-07T00:42:21.663Z,17.20
2023-06-07T00:44:48.730Z,17.20
2023-06-07T00:47:15.888Z,17.20
2023-06-07T00:49:45.353Z,17.20
2023-06-07T00:52:13.486Z,17.10
2023-06-07T00:54:41.233Z,17.10
2023-06-07T00:57:08.559Z,17.10
2023-06-07T00:59:36.746Z,17.10
2023-06-07T01:02:04.129Z,17.10
2023-06-07T01:04:32.151Z,17.10
2023-06-07T01:07:02.746Z,17.10
2023-06-07T01:09:30.798Z,17.10
2023-06-07T01:11:58.399Z,17.10
2023-06-07T01:14:26.608Z,17.10
2023-06-07T01:16:54.794Z,17.10
2023-06-07T01:19:29.693Z,17.10
2023-06-07T01:22:08.075Z,17.00
2023-06-07T01:24:37.004Z,17.00
2023-06-07T01:27:08.635Z,17.00
2023-06-07T01:29:36.389Z,17.00
2023-06-07T01:32:08.242Z,17.00
2023-06-07T01:34:36.613Z,17.00
2023-06-07T01:37:04.380Z,17.00
2023-06-07T01:39:33.195Z,17.00
2023-06-07T01:42:01.350Z,17.00
2023-06-07T01:44:30.492Z,17.00
2023-06-07T01:46:58.052Z,17.00
2023-06-07T01:49:25.071Z,17.00
2023-06-07T01:51:52.177Z,17.00
2023-06-07T01:54:19.620Z,17.00
2023-06-07T01:57:08.170Z,17.00
2023-06-07T02:00:23.192Z,17.00
2023-06-07T02:02:55.017Z,17.00
2023-06-07T02:05:38.677Z,17.00
2023-06-07T02:08:18.484Z,17.00
2023-06-07T02:10:47.370Z,16.90
2023-06-07T02:13:16.154Z,16.90
2023-06-07T02:15:47.097Z,16.90
2023-06-07T02:18:19.807Z,16.90
2023-06-07T02:20:46.980Z,16.90
2023-06-07T02:23:14.482Z,16.90
2023-06-07T02:25:41.520Z,16.90
2023-06-07T02:28:08.883Z,16.90
2023-06-07T02:30:36.417Z,16.90
2023-06-07T02:33:03.852Z,16.90
2023-06-07T02:35:30.945Z,16.90
2023-06-07T02:37:58.033Z,16.90
2023-06-07T02:40:25.106Z,16.90
2023-06-07T02:42:52.219Z,16.90
2023-06-07T02:45:19.458Z,16.90
2023-06-07T02:47:47.102Z,16.90
2023-06-07T02:50:14.300Z,17.00
2023-06-07T02:52:42.761Z,17.00
2023-06-07T02:55:10.141Z,16.90
2023-06-07T02:57:37.511Z,16.90
2023-06-07T03:00:10.128Z,16.90
2023-06-07T03:02:37.751Z,17.00
2023-06-07T03:05:06.601Z,16.90
2023-06-07T03:07:35.873Z,17.00
2023-06-07T03:10:07.034Z,16.90
2023-06-07T03:12:34.917Z,16.90
2023-06-07T03:15:01.956Z,17.00
2023-06-07T03:17:29.808Z,17.00
2023-06-07T03:19:57.885Z,17.00
2023-06-07T03:22:24.927Z,16.90
2023-06-07T03:24:53.479Z,17.00
2023-06-07T03:27:25.174Z,17.00
2023-06-07T03:29:52.409Z,17.00
2023-06-07T03:32:19.480Z,17.00
2023-06-07T03:34:46.625Z,17.00
2023-06-07T03:37:13.719Z,17.00
2023-06-07T03:39:40.748Z,17.10
2023-06-07T03:42:08.430Z,17.00
2023-06-07T03:44:35.499Z,17.10
2023-06-07T03:47:02.899Z,17.10
2023-06-07T03:49:29.941Z,17.10
2023-06-07T03:51:57.165Z,17.10
2023-06-07T03:54:24.235Z,17.10
2023-06-07T03:56:51.369Z,17.10
2023-06-07T03:59:20.534Z,17.10
2023-06-07T04:01:49.523Z,17.10
2023-06-07T04:04:16.792Z,17.10
2023-06-07T04:06:44.468Z,17.10
2023-06-07T04:09:11.718Z,17.10
2023-06-07T04:11:38.791Z,17.10
2023-06-07T04:14:05.919Z,17.10
2023-06-07T04:16:33.071Z,17.10
2023-06-07T04:19:02.278Z,17.10
2023-06-07T04:21:29.787Z,17.10
2023-06-07T04:23:58.210Z,17.20
2023-06-07T04:26:25.482Z,17.10
2023-06-07T04:28:52.530Z,17.20
2023-06-07T04:31:23.533Z,17.10
2023-06-07T04:33:50.745Z,17.10
2023-06-07T04:36:19.991Z,17.10
2023-06-07T04:38:57.726Z,17.10
2023-06-07T04:41:33.870Z,17.10
2023-06-07T04:44:01.880Z,17.20
2023-06-07T04:46:29.788Z,17.10
2023-06-07T04:48:57.227Z,17.10
2023-06-07T04:51:27.301Z,17.10
2023-06-07T04:54:02.644Z,17.10
2023-06-07T04:56:30.159Z,17.10
2023-06-07T04:58:57.813Z,17.10
2023-06-07T05:01:25.551Z,17.10
2023-06-07T05:04:01.236Z,17.10
2023-06-07T05:06:29.768Z,17.10
2023-06-07T05:08:57.186Z,17.10
2023-06-07T05:11:24.414Z,17.10
2023-06-07T05:13:51.480Z,17.00
2023-06-07T05:16:18.870Z,17.10
2023-06-07T05:18:50.144Z,17.00
2023-06-07T05:21:17.851Z,17.10
2023-06-07T05:23:45.532Z,17.00
2023-06-07T05:26:12.966Z,17.00
2023-06-07T05:28:40.040Z,17.00
2023-06-07T05:31:09.634Z,17.00
2023-06-07T05:33:38.320Z,17.00
2023-06-07T05:36:05.775Z,17.00
2023-06-07T05:38:32.843Z,17.00
2023-06-07T05:41:00.009Z,17.00
2023-06-07T05:43:27.054Z,17.00
2023-06-07T05:45:54.126Z,17.00
2023-06-07T05:48:21.282Z,17.00
2023-06-07T05:50:48.767Z,17.00
2023-06-07T05:53:16.808Z,17.00
2023-06-07T05:55:46.330Z,17.00
2023-06-07T05:58:13.504Z,17.00
2023-06-07T06:00:41.831Z,17.00
2023-06-07T06:03:09.661Z,17.00
2023-06-07T06:05:36.881Z,17.00
2023-06-07T06:08:04.214Z,17.00
2023-06-07T06:10:33.118Z,17.00
2023-06-07T06:13:02.771Z,17.00
2023-06-07T06:15:30.083Z,17.00
2023-06-07T06:17:57.256Z,17.10
2023-06-07T06:20:24.379Z,17.10
2023-06-07T06:22:51.539Z,17.10
2023-06-07T06:25:18.692Z,17.10
2023-06-07T06:27:46.029Z,17.10
2023-06-07T06:30:13.449Z,17.20
2023-06-07T06:32:41.269Z,17.20
2023-06-07T06:35:09.294Z,17.20
2023-06-07T06:37:36.952Z,17.30
2023-06-07T06:40:06.139Z,17.30
2023-06-07T06:42:33.574Z,17.30
2023-06-07T06:45:01.032Z,17.30
2023-06-07T06:47:28.175Z,17.30
2023-06-07T06:49:55.402Z,17.30
2023-06-07T06:52:22.533Z,17.30
2023-06-07T06:54:49.676Z,17.30
2023-06-07T06:57:16.739Z,17.30
2023-06-07T06:59:43.862Z,17.30
2023-06-07T07:02:12.291Z,17.30
2023-06-07T07:04:39.483Z,17.40
2023-06-07T07:07:07.078Z,17.40
2023-06-07T07:09:34.730Z,17.40
2023-06-07T07:12:01.867Z,17.40
2023-06-07T07:14:28.913Z,17.40
2023-06-07T07:16:56.077Z,17.40
2023-06-07T07:19:23.354Z,17.40
2023-06-07T07:21:50.470Z,17.40
2023-06-07T07:24:17.822Z,17.40
2023-06-07T07:26:45.102Z,17.40
2023-06-07T07:29:12.604Z,17.40
2023-06-07T07:31:40.227Z,17.40
2023-06-07T07:34:07.390Z,17.50
2023-06-07T07:36:37.520Z,17.50
2023-06-07T07:39:07.388Z,17.60
2023-06-07T07:41:35.194Z,17.60
2023-06-07T07:44:02.766Z,17.70
2023-06-07T07:46:29.922Z,17.70
2023-06-07T07:48:57.205Z,17.70
2023-06-07T07:51:24.551Z,17.70
2023-06-07T07:53:55.141Z,17.70
2023-06-07T07:56:25.046Z,17.80
2023-06-07T07:58:52.357Z,17.80
2023-06-07T08:01:23.575Z,17.80
2023-06-07T08:03:52.245Z,17.80
2023-06-07T08:06:19.459Z,17.90
2023-06-07T08:08:49.663Z,17.80
2023-06-07T08:11:16.720Z,17.90
2023-06-07T08:13:43.805Z,17.90
2023-06-07T08:16:11.266Z,17.90
2023-06-07T08:18:39.367Z,17.90
2023-06-07T08:21:06.661Z,18.00
2023-06-07T08:23:33.742Z,17.90
2023-06-07T08:26:03.170Z,17.90
2023-06-07T08:28:30.935Z,17.90
2023-06-07T08:30:58.021Z,18.00
2023-06-07T08:33:25.092Z,18.00
2023-06-07T08:35:52.269Z,18.00
2023-06-07T08:38:19.277Z,18.00
2023-06-07T08:40:46.881Z,18.00
2023-06-07T08:43:14.015Z,18.00
2023-06-07T08:45:42.731Z,18.00
2023-06-07T08:48:13.334Z,18.00
2023-06-07T08:50:42.564Z,18.10
2023-06-07T08:53:15.792Z,18.00
2023-06-07T08:55:45.081Z,18.00
2023-06-07T08:58:13.007Z,18.00
2023-06-07T09:00:40.629Z,18.00
2023-06-07T09:03:07.905Z,18.00
2023-06-07T09:05:35.025Z,18.00
2023-06-07T09:08:05.110Z,18.10
2023-06-07T09:10:32.298Z,18.10
2023-06-07T09:12:59.383Z,18.10
2023-06-07T09:15:28.348Z,18.10
2023-06-07T09:18:00.993Z,18.20
2023-06-07T09:20:34.489Z,18.20
2023-06-07T09:23:14.398Z,18.20
2023-06-07T09:25:47.814Z,18.20
2023-06-07T09:28:16.294Z,18.20
2023-06-07T09:30:58.124Z,18.30
2023-06-07T09:33:31.055Z,18.20
2023-06-07T09:36:14.380Z,18.30
2023-06-07T09:38:42.975Z,18.30
2023-06-07T09:41:14.346Z,18.30
2023-06-07T09:43:51.806Z,18.40
2023-06-07T09:46:20.584Z,18.40
2023-06-07T09:48:50.080Z,18.50
2023-06-07T09:51:19.621Z,18.50
2023-06-07T09:54:13.264Z,18.50
2023-06-07T09:56:41.477Z,18.50
2023-06-07T09:59:17.772Z,18.40
2023-06-07T10:01:48.450Z,18.40
2023-06-07T10:04:15.780Z,18.40
2023-06-07T10:06:46.669Z,18.50
2023-06-07T10:09:17.610Z,18.50
2023-06-07T10:11:47.697Z,18.50
2023-06-07T10:14:20.015Z,18.60
2023-06-07T10:17:00.044Z,18.60
2023-06-07T10:19:48.400Z,18.60
2023-06-07T10:22:25.089Z,18.60
2023-06-07T10:25:24.565Z,18.60
2023-06-07T10:28:22.924Z,18.60
2023-06-07T10:30:56.652Z,18.60
2023-06-07T10:33:26.491Z,18.70
2023-06-07T10:35:54.898Z,18.80
2023-06-07T10:38:22.000Z,18.90
2023-06-07T10:40:49.204Z,18.90
2023-06-07T10:43:16.532Z,19.00
2023-06-07T10:45:43.768Z,19.00
2023-06-07T10:48:36.438Z,19.10
2023-06-07T10:51:03.896Z,19.20
2023-06-07T10:53:53.851Z,19.20
2023-06-07T10:56:52.172Z,19.30
2023-06-07T10:59:23.848Z,19.40
2023-06-07T11:01:53.565Z,19.40
2023-06-07T11:04:36.328Z,19.50
2023-06-07T11:07:42.479Z,19.60
2023-06-07T11:10:09.764Z,19.70
2023-06-07T11:12:37.471Z,19.60
2023-06-07T11:15:21.591Z,19.70
2023-06-07T11:18:06.938Z,19.90
2023-06-07T11:20:37.594Z,20.10
2023-06-07T11:23:35.347Z,20.30
2023-06-07T11:26:16.070Z,20.40
2023-06-07T11:28:43.325Z,20.40
2023-06-07T11:31:13.189Z,20.40
2023-06-07T11:33:44.683Z,20.40
2023-06-07T11:36:12.368Z,20.40
2023-06-07T11:38:40.723Z,20.50
2023-06-07T11:41:07.981Z,20.50
2023-06-07T11:43:35.253Z,20.60
2023-06-07T11:46:02.444Z,20.60
2023-06-07T11:48:31.150Z,20.50
2023-06-07T11:51:00.595Z,20.60
2023-06-07T11:53:30.668Z,20.60
2023-06-07T11:56:02.597Z,20.70
2023-06-07T11:58:31.283Z,20.60
2023-06-07T12:00:59.137Z,20.60
2023-06-07T12:03:27.753Z,20.50
2023-06-07T12:05:55.546Z,20.50
2023-06-07T12:08:29.118Z,20.40
2023-06-07T12:10:57.027Z,20.30
2023-06-07T12:13:24.834Z,20.30
2023-06-07T12:15:57.557Z,20.30
2023-06-07T12:18:30.414Z,20.30
2023-06-07T12:21:11.139Z,20.30
2023-06-07T12:26:16.821Z,20.20
2023-06-07T12:28:45.006Z,20.20
2023-06-07T12:31:21.641Z,20.20
2023-06-07T12:34:09.929Z,20.20
2023-06-07T12:36:39.973Z,20.20
2023-06-07T12:39:12.387Z,20.10
2023-06-07T12:41:40.320Z,20.10
2023-06-07T12:44:11.276Z,20.10
2023-06-07T12:46:38.657Z,20.20
2023-06-07T12:49:06.499Z,20.20
2023-06-07T12:51:34.544Z,20.20
2023-06-07T12:54:02.180Z,20.20
2023-06-07T12:56:30.560Z,20.30
2023-06-07T12:58:58.014Z,20.30
2023-06-07T13:01:25.696Z,20.30
2023-06-07T13:03:53.536Z,20.30
2023-06-07T13:06:21.910Z,20.20
2023-06-07T13:09:03.001Z,20.20
2023-06-07T13:11:30.158Z,20.20
2023-06-07T13:13:57.294Z,20.10
2023-06-07T13:16:24.451Z,20.10
2023-06-07T13:18:52.541Z,20.10
2023-06-07T13:21:19.672Z,20.10
2023-06-07T13:23:46.736Z,20.10
2023-06-07T13:26:14.683Z,20.10
2023-06-07T13:28:45.290Z,20.20
2023-06-07T13:31:13.187Z,20.20
2023-06-07T13:33:42.037Z,20.30
2023-06-07T13:36:09.440Z,20.30
2023-06-07T13:38:38.683Z,20.40
2023-06-07T13:41:06.515Z,20.40
2023-06-07T13:46:03.981Z,20.60
2023-06-07T13:48:32.354Z,20.60
2023-06-07T13:50:59.861Z,20.60
2023-06-07T13:53:28.033Z,20.50
2023-06-07T13:55:57.554Z,20.50
2023-06-07T13:58:25.896Z,20.50
2023-06-07T14:00:53.032Z,20.50
2023-06-07T14:03:21.235Z,20.40
2023-06-07T14:05:48.372Z,20.40
2023-06-07T14:08:15.607Z,20.30
2023-06-07T14:10:42.701Z,20.30
2023-06-07T14:13:09.784Z,20.20
2023-06-07T14:15:36.933Z,20.10
2023-06-07T14:18:04.253Z,20.10
2023-06-07T14:20:31.417Z,20.00
2023-06-07T14:22:58.729Z,20.00
2023-06-07T14:25:26.074Z,19.90
2023-06-07T14:27:53.175Z,19.90
2023-06-07T14:30:20.627Z,19.90
2023-06-07T14:32:48.055Z,19.80
2023-06-07T14:35:18.008Z,19.80
2023-06-07T14:37:45.166Z,19.70
2023-06-07T14:48:47.147Z,19.70
2023-06-07T14:51:16.460Z,19.60
2023-06-07T14:53:43.482Z,19.60
2023-06-07T14:56:10.564Z,19.60
2023-06-07T14:58:37.687Z,19.50
2023-06-07T15:01:04.849Z,19.50
2023-06-07T15:03:32.448Z,19.50
2023-06-07T15:05:59.496Z,19.40
2023-06-07T15:08:29.399Z,19.30
2023-06-07T15:10:58.971Z,19.10
2023-06-07T15:13:26.359Z,19.00
2023-06-07T15:15:53.510Z,18.90
2023-06-07T15:18:21.860Z,18.80
2023-06-07T15:20:49.033Z,18.70
2023-06-07T15:23:16.185Z,18.60
2023-06-07T15:25:43.231Z,18.60
2023-06-07T15:28:10.315Z,18.50
2023-06-07T15:30:37.388Z,18.50
2023-06-07T15:33:05.157Z,18.50
2023-06-07T15:35:32.311Z,18.50
2023-06-07T15:37:59.385Z,18.40
2023-06-07T15:40:26.429Z,18.40
2023-06-07T15:42:53.578Z,18.40
2023-06-07T15:45:20.679Z,18.40
2023-06-07T15:48:02.262Z,18.40
2023-06-07T15:50:30.449Z,18.40
2023-06-07T15:52:59.039Z,18.40
2023-06-07T15:55:28.720Z,18.40
2023-06-07T15:57:56.513Z,18.40
2023-06-07T16:00:37.086Z,18.40
2023-06-07T16:03:06.314Z,18.40
2023-06-07T16:05:33.607Z,18.40
2023-06-07T16:08:12.456Z,18.40
2023-06-07T16:10:40.911Z,18.50
2023-06-07T16:13:08.132Z,18.50
2023-06-07T16:15:35.600Z,18.40
2023-06-07T16:18:02.838Z,18.40
2023-06-07T16:20:29.964Z,18.40
2023-06-07T16:22:57.051Z,18.30
2023-06-07T16:25:24.477Z,18.30
2023-06-07T16:27:51.724Z,18.30
2023-06-07T16:30:19.150Z,18.30
2023-06-07T16:32:46.775Z,18.20
2023-06-07T16:35:14.062Z,18.30
2023-06-07T16:37:41.117Z,18.30
2023-06-07T16:40:09.329Z,18.40
2023-06-07T16:42:36.828Z,18.40
2023-06-07T16:45:04.205Z,18.50
2023-06-07T16:47:31.696Z,17.90
2023-06-07T16:49:58.802Z,18.50
2023-06-07T16:52:25.851Z,18.60
2023-06-07T16:54:53.016Z,18.60
2023-06-07T16:57:20.678Z,18.70
2023-06-07T16:59:47.937Z,18.80
2023-06-07T17:02:15.054Z,18.80
2023-06-07T17:04:42.300Z,18.80
2023-06-07T17:07:09.555Z,18.80
2023-06-07T17:09:36.677Z,18.80
2023-06-07T17:12:04.095Z,18.80
2023-06-07T17:14:31.150Z,18.80
2023-06-07T17:16:58.205Z,18.90
2023-06-07T17:19:25.543Z,18.80
2023-06-07T17:21:52.645Z,18.90
2023-06-07T17:24:20.946Z,18.90
2023-06-07T17:26:48.190Z,18.90
2023-06-07T17:29:28.739Z,18.80
2023-06-07T17:31:56.734Z,18.80
2023-06-07T17:34:23.826Z,18.80
2023-06-07T17:36:51.040Z,18.90
2023-06-07T17:39:19.776Z,18.90
2023-06-07T17:41:46.999Z,18.90
2023-06-07T17:44:14.111Z,18.90
2023-06-07T17:46:41.631Z,18.90
2023-06-07T17:49:08.719Z,18.90
2023-06-07T17:51:37.181Z,18.80
2023-06-07T17:54:05.828Z,18.80
2023-06-07T17:56:33.017Z,18.80
2023-06-07T17:59:00.171Z,18.80
2023-06-07T18:01:27.400Z,18.90
2023-06-07T18:03:55.310Z,18.80
2023-06-07T18:06:27.188Z,18.80
2023-06-07T18:08:54.355Z,18.80
2023-06-07T18:11:21.720Z,18.80
2023-06-07T18:13:48.781Z,18.80
2023-06-07T18:16:15.926Z,18.70
2023-06-07T18:18:43.083Z,18.70
2023-06-07T18:21:11.181Z,18.70
2023-06-07T18:23:38.929Z,18.70
2023-06-07T18:26:07.498Z,18.60
2023-06-07T18:28:34.851Z,18.60
2023-06-07T18:31:02.165Z,18.60
2023-06-07T18:33:30.007Z,18.50
2023-06-07T18:35:57.766Z,18.50
2023-06-07T18:38:26.176Z,18.50
2023-06-07T18:40:53.575Z,18.40
2023-06-07T18:43:21.046Z,18.40
2023-06-07T18:45:48.709Z,18.40
2023-06-07T18:48:17.746Z,18.30
2023-06-07T18:50:45.000Z,18.30
2023-06-07T18:53:12.716Z,18.30
2023-06-07T18:55:40.137Z,18.20
2023-06-07T18:58:09.245Z,18.20
2023-06-07T19:00:37.777Z,18.10
2023-06-07T19:03:05.126Z,18.10
2023-06-07T19:05:32.806Z,18.10
2023-06-07T19:08:00.122Z,18.10
2023-06-07T19:10:27.598Z,18.00
2023-06-07T19:12:54.716Z,18.00
2023-06-07T19:15:21.950Z,18.00
2023-06-07T19:17:49.079Z,18.00
2023-06-07T19:20:17.981Z,17.90
2023-06-07T19:22:47.071Z,17.90
2023-06-07T19:25:14.263Z,17.90
2023-06-07T19:27:42.790Z,17.90
2023-06-07T19:30:10.970Z,17.80
2023-06-07T19:32:38.086Z,17.70
2023-06-07T19:35:06.247Z,17.70
2023-06-07T19:37:34.021Z,17.70
2023-06-07T19:40:08.292Z,17.60
2023-06-07T19:42:39.174Z,17.70
2023-06-07T19:45:09.693Z,17.60
2023-06-07T19:47:37.686Z,17.60
2023-06-07T19:50:07.757Z,17.60
2023-06-07T19:52:35.024Z,17.50
2023-06-07T19:55:02.085Z,17.50
2023-06-07T19:57:29.572Z,17.50
2023-06-07T19:59:56.633Z,17.40
2023-06-07T20:02:23.849Z,17.40
2023-06-07T20:04:50.953Z,17.40
2023-06-07T20:07:18.388Z,17.30
2023-06-07T20:09:45.466Z,17.40
2023-06-07T20:12:12.849Z,17.30
2023-06-07T20:14:41.016Z,17.30
2023-06-07T20:17:10.223Z,17.30
2023-06-07T20:19:37.560Z,17.20
2023-06-07T20:22:05.060Z,17.20
2023-06-07T20:24:32.158Z,17.20
2023-06-07T20:26:59.213Z,17.10
2023-06-07T20:29:26.352Z,17.10
2023-06-07T20:31:56.176Z,17.10
2023-06-07T20:34:24.806Z,17.10
2023-06-07T20:36:54.190Z,17.10
2023-06-07T20:39:22.258Z,17.10
2023-06-07T20:41:50.368Z,17.10
2023-06-07T20:44:18.423Z,17.10
2023-06-07T20:46:46.408Z,17.10
2023-06-07T20:49:14.367Z,17.10
2023-06-07T20:51:42.368Z,17.10
2023-06-07T20:54:10.567Z,17.10
2023-06-07T20:56:38.710Z,17.10
2023-06-07T20:59:06.553Z,17.10
2023-06-07T21:01:35.234Z,17.10
2023-06-07T21:04:02.579Z,17.10
2023-06-07T21:06:30.450Z,17.10
2023-06-07T21:08:57.467Z,17.20
2023-06-07T21:11:27.155Z,17.10
2023-06-07T21:13:54.482Z,17.00
2023-06-07T21:16:21.616Z,17.10
2023-06-07T21:18:48.679Z,17.10
2023-06-07T21:21:15.808Z,17.10
2023-06-07T21:23:43.021Z,17.00
2023-06-07T21:26:10.320Z,17.00
2023-06-07T21:28:37.687Z,16.90
2023-06-07T21:31:04.855Z,17.00
2023-06-07T21:33:32.005Z,17.00
2023-06-07T21:35:59.108Z,17.10
2023-06-07T21:38:26.376Z,17.10
2023-06-07T21:40:53.405Z,17.10
2023-06-07T21:43:23.493Z,17.10
2023-06-07T21:45:50.681Z,17.10
2023-06-07T21:48:17.803Z,17.10
2023-06-07T21:50:44.932Z,17.10
2023-06-07T21:53:12.018Z,17.10
2023-06-07T21:55:39.148Z,17.10
2023-06-07T21:58:06.409Z,17.10
2023-06-07T22:00:33.460Z,17.10
2023-06-07T22:03:00.596Z,17.10
2023-06-07T22:05:27.685Z,17.10
2023-06-07T22:07:54.772Z,17.10
2023-06-07T22:10:21.866Z,17.10
2023-06-07T22:12:54.490Z,17.10
2023-06-07T22:15:22.702Z,17.10
2023-06-07T22:17:54.629Z,17.10
2023-06-07T22:20:24.625Z,17.10
2023-06-07T22:22:52.658Z,17.10
2023-06-07T22:25:31.300Z,17.10
2023-06-07T22:28:13.686Z,17.10
2023-06-07T22:30:42.168Z,17.10
2023-06-07T22:33:10.124Z,17.10
2023-06-07T22:35:38.533Z,17.10
2023-06-07T22:38:07.185Z,17.10
2023-06-07T22:40:37.726Z,17.10
2023-06-07T22:43:05.325Z,17.10
2023-06-07T22:45:32.688Z,17.10
2023-06-07T22:48:11.152Z,17.10
2023-06-07T22:50:43.146Z,17.10
2023-06-07T22:53:15.250Z,17.00
2023-06-07T22:55:43.150Z,17.10
2023-06-07T22:58:10.633Z,17.00
2023-06-07T23:00:38.153Z,17.00
2023-06-07T23:03:08.474Z,17.00
2023-06-07T23:05:36.901Z,17.00
2023-06-07T23:08:04.071Z,17.00
2023-06-07T23:10:36.828Z,17.00
2023-06-07T23:13:10.228Z,17.00
2023-06-07T23:15:42.171Z,16.90
2023-06-07T23:18:12.869Z,16.90
2023-06-07T23:20:41.993Z,16.90
2023-06-07T23:23:11.302Z,16.90
2023-06-07T23:25:39.429Z,16.90
2023-06-07T23:28:06.917Z,16.90
2023-06-07T23:30:34.649Z,16.80
2023-06-07T23:33:02.445Z,16.80
2023-06-07T23:35:29.627Z,16.80
2023-06-07T23:37:56.676Z,16.70
2023-06-07T23:40:24.048Z,16.70
2023-06-07T23:42:54.205Z,16.70
2023-06-07T23:45:22.097Z,16.70
2023-06-07T23:47:49.408Z,16.60
2023-06-07T23:50:16.539Z,16.70
2023-06-07T23:52:43.615Z,16.60
2023-06-07T23:55:10.952Z,16.60
2023-06-07T23:57:38.030Z,16.60
